sensor_id;sensor_type;location;lat;lon;timestamp;P1;durP1;ratioP1;P2;durP2;ratioP2
10523;SDS011;5310;48.638;9.060;2023-04-25T00:02:04;0.70;;;0.70;;
10523;SDS011;5310;48.638;9.060;2023-04-25T00:04:30;0.90;;;0.90;;
10523;SDS011;5310;48.638;9.060;2023-04-25T00:06:58;0.80;;;0.80;;
10523;SDS011;5310;48.638;9.060;2023-04-25T00:09:28;0.73;;;0.73;;
10523;SDS011;5310;48.638;9.060;2023-04-25T00:11:54;0.80;;;0.80;;
10523;SDS011;5310;48.638;9.060;2023-04-25T00:14:20;0.80;;;0.80;;
10523;SDS011;5310;48.638;9.060;2023-04-25T00:16:45;0.80;;;0.80;;
10523;SDS011;5310;48.638;9.060;2023-04-25T00:19:11;0.73;;;0.73;;
10523;SDS011;5310;48.638;9.060;2023-04-25T00:21:38;0.70;;;0.70;;
10523;SDS011;5310;48.638;9.060;2023-04-25T00:24:05;0.80;;;0.80;;
10523;SDS011;5310;48.638;9.060;2023-04-25T00:26:33;0.70;;;0.70;;
10523;SDS011;5310;48.638;9.060;2023-04-25T00:29:00;0.80;;;0.80;;
10523;SDS011;5310;48.638;9.060;2023-04-25T00:31:26;0.80;;;0.80;;
10523;SDS011;5310;48.638;9.060;2023-04-25T00:33:53;0.70;;;0.70;;
10523;SDS011;5310;48.638;9.060;2023-04-25T00:36:20;0.80;;;0.80;;
10523;SDS011;5310;48.638;9.060;2023-04-25T00:38:46;0.80;;;0.80;;
10523;SDS011;5310;48.638;9.060;2023-04-25T00:41:12;0.70;;;0.70;;
10523;SDS011;5310;48.638;9.060;2023-04-25T00:43:37;0.70;;;0.70;;
10523;SDS011;5310;48.638;9.060;2023-04-25T00:46:05;0.70;;;0.70;;
10523;SDS011;5310;48.638;9.060;2023-04-25T00:48:30;0.80;;;0.80;;
10523;SDS011;5310;48.638;9.060;2023-04-25T00:50:57;0.70;;;0.70;;
10523;SDS011;5310;48.638;9.060;2023-04-25T00:53:23;0.80;;;0.80;;
10523;SDS011;5310;48.638;9.060;2023-04-25T00:55:50;0.70;;;0.70;;
10523;SDS011;5310;48.638;9.060;2023-04-25T00:58:16;0.80;;;0.80;;
10523;SDS011;5310;48.638;9.060;2023-04-25T01:00:43;0.70;;;0.70;;
10523;SDS011;5310;48.638;9.060;2023-04-25T01:03:10;0.80;;;0.80;;
10523;SDS011;5310;48.638;9.060;2023-04-25T01:05:37;0.80;;;0.80;;
10523;SDS011;5310;48.638;9.060;2023-04-25T01:08:03;0.83;;;0.83;;
10523;SDS011;5310;48.638;9.060;2023-04-25T01:10:29;0.80;;;0.80;;
10523;SDS011;5310;48.638;9.060;2023-04-25T01:12:54;0.90;;;0.90;;
10523;SDS011;5310;48.638;9.060;2023-04-25T01:15:20;0.70;;;0.70;;
10523;SDS011;5310;48.638;9.060;2023-04-25T01:17:46;0.90;;;0.90;;
10523;SDS011;5310;48.638;9.060;2023-04-25T01:20:14;0.90;;;0.90;;
10523;SDS011;5310;48.638;9.060;2023-04-25T01:22:40;0.70;;;0.70;;
10523;SDS011;5310;48.638;9.060;2023-04-25T01:25:07;0.73;;;0.73;;
10523;SDS011;5310;48.638;9.060;2023-04-25T01:27:33;0.80;;;0.80;;
10523;SDS011;5310;48.638;9.060;2023-04-25T01:29:59;0.80;;;0.80;;
10523;SDS011;5310;48.638;9.060;2023-04-25T01:32:25;0.80;;;0.80;;
10523;SDS011;5310;48.638;9.060;2023-04-25T01:34:51;0.70;;;0.70;;
10523;SDS011;5310;48.638;9.060;2023-04-25T01:37:17;0.80;;;0.80;;
10523;SDS011;5310;48.638;9.060;2023-04-25T01:39:43;0.80;;;0.80;;
10523;SDS011;5310;48.638;9.060;2023-04-25T01:42:09;0.87;;;0.87;;
10523;SDS011;5310;48.638;9.060;2023-04-25T01:44:35;0.80;;;0.80;;
10523;SDS011;5310;48.638;9.060;2023-04-25T01:47:01;0.80;;;0.80;;
10523;SDS011;5310;48.638;9.060;2023-04-25T01:49:26;0.70;;;0.70;;
10523;SDS011;5310;48.638;9.060;2023-04-25T01:51:52;0.73;;;0.73;;
10523;SDS011;5310;48.638;9.060;2023-04-25T01:54:17;0.70;;;0.70;;
10523;SDS011;5310;48.638;9.060;2023-04-25T01:56:43;0.80;;;0.80;;
10523;SDS011;5310;48.638;9.060;2023-04-25T01:59:16;0.80;;;0.80;;
10523;SDS011;5310;48.638;9.060;2023-04-25T02:01:45;0.80;;;0.80;;
10523;SDS011;5310;48.638;9.060;2023-04-25T02:04:11;0.70;;;0.70;;
10523;SDS011;5310;48.638;9.060;2023-04-25T02:06:37;0.80;;;0.80;;
10523;SDS011;5310;48.638;9.060;2023-04-25T02:09:03;0.80;;;0.80;;
10523;SDS011;5310;48.638;9.060;2023-04-25T02:11:29;0.80;;;0.80;;
10523;SDS011;5310;48.638;9.060;2023-04-25T02:13:54;0.80;;;0.80;;
10523;SDS011;5310;48.638;9.060;2023-04-25T02:16:20;0.80;;;0.80;;
10523;SDS011;5310;48.638;9.060;2023-04-25T02:18:46;0.70;;;0.70;;
10523;SDS011;5310;48.638;9.060;2023-04-25T02:21:12;0.80;;;0.80;;
10523;SDS011;5310;48.638;9.060;2023-04-25T02:23:38;0.80;;;0.80;;
10523;SDS011;5310;48.638;9.060;2023-04-25T02:26:04;0.77;;;0.77;;
10523;SDS011;5310;48.638;9.060;2023-04-25T02:28:30;0.90;;;0.90;;
10523;SDS011;5310;48.638;9.060;2023-04-25T02:30:56;1.00;;;1.00;;
10523;SDS011;5310;48.638;9.060;2023-04-25T02:33:22;0.70;;;0.70;;
10523;SDS011;5310;48.638;9.060;2023-04-25T02:35:48;1.00;;;1.00;;
10523;SDS011;5310;48.638;9.060;2023-04-25T02:38:14;0.80;;;0.80;;
10523;SDS011;5310;48.638;9.060;2023-04-25T02:40:40;0.80;;;0.80;;
10523;SDS011;5310;48.638;9.060;2023-04-25T02:43:05;0.90;;;0.90;;
10523;SDS011;5310;48.638;9.060;2023-04-25T02:45:32;0.90;;;0.90;;
10523;SDS011;5310;48.638;9.060;2023-04-25T02:47:57;0.90;;;0.90;;
10523;SDS011;5310;48.638;9.060;2023-04-25T02:50:23;0.90;;;0.90;;
10523;SDS011;5310;48.638;9.060;2023-04-25T02:52:48;0.80;;;0.80;;
10523;SDS011;5310;48.638;9.060;2023-04-25T02:55:14;0.87;;;0.87;;
10523;SDS011;5310;48.638;9.060;2023-04-25T02:57:40;0.70;;;0.70;;
10523;SDS011;5310;48.638;9.060;2023-04-25T03:00:06;0.90;;;0.90;;
10523;SDS011;5310;48.638;9.060;2023-04-25T03:02:32;1.00;;;1.00;;
10523;SDS011;5310;48.638;9.060;2023-04-25T03:04:58;0.90;;;0.90;;
10523;SDS011;5310;48.638;9.060;2023-04-25T03:07:24;0.90;;;0.90;;
10523;SDS011;5310;48.638;9.060;2023-04-25T03:09:50;0.80;;;0.80;;
10523;SDS011;5310;48.638;9.060;2023-04-25T03:12:16;0.90;;;0.90;;
10523;SDS011;5310;48.638;9.060;2023-04-25T03:14:42;0.87;;;0.87;;
10523;SDS011;5310;48.638;9.060;2023-04-25T03:17:08;1.00;;;1.00;;
10523;SDS011;5310;48.638;9.060;2023-04-25T03:19:33;0.80;;;0.80;;
10523;SDS011;5310;48.638;9.060;2023-04-25T03:21:59;1.00;;;1.00;;
10523;SDS011;5310;48.638;9.060;2023-04-25T03:24:25;0.80;;;0.80;;
10523;SDS011;5310;48.638;9.060;2023-04-25T03:26:52;0.90;;;0.90;;
10523;SDS011;5310;48.638;9.060;2023-04-25T03:29:17;0.90;;;0.90;;
10523;SDS011;5310;48.638;9.060;2023-04-25T03:31:43;0.80;;;0.80;;
10523;SDS011;5310;48.638;9.060;2023-04-25T03:34:10;0.80;;;0.80;;
10523;SDS011;5310;48.638;9.060;2023-04-25T03:36:35;0.90;;;0.90;;
10523;SDS011;5310;48.638;9.060;2023-04-25T03:39:01;0.90;;;0.90;;
10523;SDS011;5310;48.638;9.060;2023-04-25T03:41:27;0.80;;;0.80;;
10523;SDS011;5310;48.638;9.060;2023-04-25T03:43:53;0.80;;;0.80;;
10523;SDS011;5310;48.638;9.060;2023-04-25T03:46:19;0.90;;;0.90;;
10523;SDS011;5310;48.638;9.060;2023-04-25T03:48:45;0.90;;;0.90;;
10523;SDS011;5310;48.638;9.060;2023-04-25T03:51:11;0.90;;;0.90;;
10523;SDS011;5310;48.638;9.060;2023-04-25T03:53:37;0.90;;;0.90;;
10523;SDS011;5310;48.638;9.060;2023-04-25T03:56:03;0.90;;;0.90;;
10523;SDS011;5310;48.638;9.060;2023-04-25T03:58:28;0.90;;;0.90;;
10523;SDS011;5310;48.638;9.060;2023-04-25T04:00:54;0.80;;;0.80;;
10523;SDS011;5310;48.638;9.060;2023-04-25T04:03:20;0.90;;;0.90;;
10523;SDS011;5310;48.638;9.060;2023-04-25T04:05:46;0.90;;;0.90;;
10523;SDS011;5310;48.638;9.060;2023-04-25T04:08:12;0.90;;;0.90;;
10523;SDS011;5310;48.638;9.060;2023-04-25T04:10:38;0.90;;;0.90;;
10523;SDS011;5310;48.638;9.060;2023-04-25T04:13:04;1.00;;;1.00;;
10523;SDS011;5310;48.638;9.060;2023-04-25T04:15:30;0.90;;;0.90;;
10523;SDS011;5310;48.638;9.060;2023-04-25T04:17:57;1.00;;;1.00;;
10523;SDS011;5310;48.638;9.060;2023-04-25T04:20:27;0.87;;;0.87;;
10523;SDS011;5310;48.638;9.060;2023-04-25T04:22:53;1.00;;;1.00;;
10523;SDS011;5310;48.638;9.060;2023-04-25T04:25:19;0.90;;;0.90;;
10523;SDS011;5310;48.638;9.060;2023-04-25T04:27:45;0.90;;;0.90;;
10523;SDS011;5310;48.638;9.060;2023-04-25T04:30:11;0.90;;;0.90;;
10523;SDS011;5310;48.638;9.060;2023-04-25T04:32:37;0.90;;;0.90;;
10523;SDS011;5310;48.638;9.060;2023-04-25T04:35:03;1.00;;;1.00;;
10523;SDS011;5310;48.638;9.060;2023-04-25T04:37:29;1.00;;;1.00;;
10523;SDS011;5310;48.638;9.060;2023-04-25T04:39:55;0.90;;;0.90;;
10523;SDS011;5310;48.638;9.060;2023-04-25T04:42:21;0.90;;;0.90;;
10523;SDS011;5310;48.638;9.060;2023-04-25T04:44:47;0.90;;;0.90;;
10523;SDS011;5310;48.638;9.060;2023-04-25T04:47:12;0.80;;;0.80;;
10523;SDS011;5310;48.638;9.060;2023-04-25T04:49:39;0.90;;;0.90;;
10523;SDS011;5310;48.638;9.060;2023-04-25T04:52:05;0.80;;;0.80;;
10523;SDS011;5310;48.638;9.060;2023-04-25T04:54:30;0.90;;;0.90;;
10523;SDS011;5310;48.638;9.060;2023-04-25T04:56:56;0.80;;;0.80;;
10523;SDS011;5310;48.638;9.060;2023-04-25T04:59:23;0.90;;;0.90;;
10523;SDS011;5310;48.638;9.060;2023-04-25T05:01:49;0.87;;;0.87;;
10523;SDS011;5310;48.638;9.060;2023-04-25T05:04:14;0.70;;;0.70;;
10523;SDS011;5310;48.638;9.060;2023-04-25T05:06:40;0.80;;;0.80;;
10523;SDS011;5310;48.638;9.060;2023-04-25T05:09:06;0.90;;;0.90;;
10523;SDS011;5310;48.638;9.060;2023-04-25T05:11:32;0.90;;;0.90;;
10523;SDS011;5310;48.638;9.060;2023-04-25T05:13:58;0.80;;;0.80;;
10523;SDS011;5310;48.638;9.060;2023-04-25T05:16:24;0.80;;;0.80;;
10523;SDS011;5310;48.638;9.060;2023-04-25T05:18:50;0.80;;;0.80;;
10523;SDS011;5310;48.638;9.060;2023-04-25T05:21:16;1.00;;;1.00;;
10523;SDS011;5310;48.638;9.060;2023-04-25T05:23:42;0.90;;;0.90;;
10523;SDS011;5310;48.638;9.060;2023-04-25T05:26:08;0.77;;;0.77;;
10523;SDS011;5310;48.638;9.060;2023-04-25T05:28:39;0.90;;;0.90;;
10523;SDS011;5310;48.638;9.060;2023-04-25T05:31:05;0.83;;;0.83;;
10523;SDS011;5310;48.638;9.060;2023-04-25T05:33:32;0.90;;;0.90;;
10523;SDS011;5310;48.638;9.060;2023-04-25T05:35:58;0.90;;;0.90;;
10523;SDS011;5310;48.638;9.060;2023-04-25T05:38:24;0.80;;;0.80;;
10523;SDS011;5310;48.638;9.060;2023-04-25T05:40:49;0.80;;;0.80;;
10523;SDS011;5310;48.638;9.060;2023-04-25T05:43:15;0.80;;;0.80;;
10523;SDS011;5310;48.638;9.060;2023-04-25T05:45:41;0.90;;;0.90;;
10523;SDS011;5310;48.638;9.060;2023-04-25T05:48:07;0.80;;;0.80;;
10523;SDS011;5310;48.638;9.060;2023-04-25T05:50:33;0.90;;;0.90;;
10523;SDS011;5310;48.638;9.060;2023-04-25T05:52:59;0.80;;;0.80;;
10523;SDS011;5310;48.638;9.060;2023-04-25T05:55:25;0.70;;;0.70;;
10523;SDS011;5310;48.638;9.060;2023-04-25T05:57:50;0.90;;;0.90;;
10523;SDS011;5310;48.638;9.060;2023-04-25T06:00:16;0.70;;;0.70;;
10523;SDS011;5310;48.638;9.060;2023-04-25T06:02:43;0.80;;;0.80;;
10523;SDS011;5310;48.638;9.060;2023-04-25T06:05:09;0.70;;;0.70;;
10523;SDS011;5310;48.638;9.060;2023-04-25T06:07:35;0.80;;;0.80;;
10523;SDS011;5310;48.638;9.060;2023-04-25T06:10:01;0.80;;;0.80;;
10523;SDS011;5310;48.638;9.060;2023-04-25T06:12:26;0.70;;;0.70;;
10523;SDS011;5310;48.638;9.060;2023-04-25T06:14:52;0.70;;;0.70;;
10523;SDS011;5310;48.638;9.060;2023-04-25T06:17:19;0.70;;;0.70;;
10523;SDS011;5310;48.638;9.060;2023-04-25T06:19:45;0.70;;;0.70;;
10523;SDS011;5310;48.638;9.060;2023-04-25T06:22:10;0.70;;;0.70;;
10523;SDS011;5310;48.638;9.060;2023-04-25T06:24:36;0.80;;;0.80;;
10523;SDS011;5310;48.638;9.060;2023-04-25T06:27:02;0.70;;;0.70;;
10523;SDS011;5310;48.638;9.060;2023-04-25T06:29:28;0.77;;;0.77;;
10523;SDS011;5310;48.638;9.060;2023-04-25T06:31:54;0.70;;;0.70;;
10523;SDS011;5310;48.638;9.060;2023-04-25T06:34:19;0.80;;;0.80;;
10523;SDS011;5310;48.638;9.060;2023-04-25T06:36:45;0.70;;;0.70;;
10523;SDS011;5310;48.638;9.060;2023-04-25T06:39:11;0.80;;;0.80;;
10523;SDS011;5310;48.638;9.060;2023-04-25T06:41:37;0.77;;;0.77;;
10523;SDS011;5310;48.638;9.060;2023-04-25T06:44:03;0.70;;;0.70;;
10523;SDS011;5310;48.638;9.060;2023-04-25T06:46:29;0.70;;;0.70;;
10523;SDS011;5310;48.638;9.060;2023-04-25T06:48:55;0.80;;;0.80;;
10523;SDS011;5310;48.638;9.060;2023-04-25T06:51:21;0.90;;;0.90;;
10523;SDS011;5310;48.638;9.060;2023-04-25T06:53:49;0.80;;;0.80;;
10523;SDS011;5310;48.638;9.060;2023-04-25T06:56:15;0.80;;;0.80;;
10523;SDS011;5310;48.638;9.060;2023-04-25T06:58:41;0.80;;;0.80;;
10523;SDS011;5310;48.638;9.060;2023-04-25T07:01:06;0.80;;;0.80;;
10523;SDS011;5310;48.638;9.060;2023-04-25T07:03:32;0.80;;;0.80;;
10523;SDS011;5310;48.638;9.060;2023-04-25T07:05:58;0.70;;;0.70;;
10523;SDS011;5310;48.638;9.060;2023-04-25T07:08:24;0.80;;;0.80;;
10523;SDS011;5310;48.638;9.060;2023-04-25T07:10:50;0.80;;;0.80;;
10523;SDS011;5310;48.638;9.060;2023-04-25T07:13:16;0.80;;;0.80;;
10523;SDS011;5310;48.638;9.060;2023-04-25T07:15:42;0.70;;;0.70;;
10523;SDS011;5310;48.638;9.060;2023-04-25T07:18:08;0.80;;;0.80;;
10523;SDS011;5310;48.638;9.060;2023-04-25T07:20:35;0.80;;;0.80;;
10523;SDS011;5310;48.638;9.060;2023-04-25T07:23:01;0.63;;;0.63;;
10523;SDS011;5310;48.638;9.060;2023-04-25T07:25:27;0.80;;;0.80;;
10523;SDS011;5310;48.638;9.060;2023-04-25T07:27:52;0.80;;;0.80;;
10523;SDS011;5310;48.638;9.060;2023-04-25T07:30:18;0.73;;;0.73;;
10523;SDS011;5310;48.638;9.060;2023-04-25T07:32:44;0.80;;;0.80;;
10523;SDS011;5310;48.638;9.060;2023-04-25T07:35:10;0.70;;;0.70;;
10523;SDS011;5310;48.638;9.060;2023-04-25T07:37:36;0.70;;;0.70;;
10523;SDS011;5310;48.638;9.060;2023-04-25T07:40:03;0.70;;;0.70;;
10523;SDS011;5310;48.638;9.060;2023-04-25T07:42:29;0.80;;;0.80;;
10523;SDS011;5310;48.638;9.060;2023-04-25T07:44:55;0.70;;;0.70;;
10523;SDS011;5310;48.638;9.060;2023-04-25T07:47:20;0.80;;;0.80;;
10523;SDS011;5310;48.638;9.060;2023-04-25T07:49:46;0.70;;;0.70;;
10523;SDS011;5310;48.638;9.060;2023-04-25T07:52:12;0.80;;;0.80;;
10523;SDS011;5310;48.638;9.060;2023-04-25T07:54:38;0.80;;;0.80;;
10523;SDS011;5310;48.638;9.060;2023-04-25T07:57:04;0.80;;;0.80;;
10523;SDS011;5310;48.638;9.060;2023-04-25T07:59:31;0.83;;;0.83;;
10523;SDS011;5310;48.638;9.060;2023-04-25T08:01:57;0.70;;;0.70;;
10523;SDS011;5310;48.638;9.060;2023-04-25T08:04:23;0.70;;;0.70;;
10523;SDS011;5310;48.638;9.060;2023-04-25T08:06:50;0.70;;;0.70;;
10523;SDS011;5310;48.638;9.060;2023-04-25T08:09:16;0.80;;;0.80;;
10523;SDS011;5310;48.638;9.060;2023-04-25T08:11:41;0.80;;;0.80;;
10523;SDS011;5310;48.638;9.060;2023-04-25T08:14:08;0.70;;;0.70;;
10523;SDS011;5310;48.638;9.060;2023-04-25T08:16:34;0.90;;;0.90;;
10523;SDS011;5310;48.638;9.060;2023-04-25T08:19:00;0.80;;;0.80;;
10523;SDS011;5310;48.638;9.060;2023-04-25T08:21:26;0.70;;;0.70;;
10523;SDS011;5310;48.638;9.060;2023-04-25T08:23:52;0.90;;;0.90;;
10523;SDS011;5310;48.638;9.060;2023-04-25T08:26:18;0.90;;;0.90;;
10523;SDS011;5310;48.638;9.060;2023-04-25T08:28:44;0.97;;;0.97;;
10523;SDS011;5310;48.638;9.060;2023-04-25T08:31:10;0.90;;;0.90;;
10523;SDS011;5310;48.638;9.060;2023-04-25T08:33:35;0.80;;;0.80;;
10523;SDS011;5310;48.638;9.060;2023-04-25T08:36:01;0.80;;;0.80;;
10523;SDS011;5310;48.638;9.060;2023-04-25T08:38:27;0.90;;;0.90;;
10523;SDS011;5310;48.638;9.060;2023-04-25T08:40:53;0.80;;;0.80;;
10523;SDS011;5310;48.638;9.060;2023-04-25T08:43:20;0.80;;;0.80;;
10523;SDS011;5310;48.638;9.060;2023-04-25T08:45:46;1.00;;;1.00;;
10523;SDS011;5310;48.638;9.060;2023-04-25T08:48:13;0.93;;;0.93;;
10523;SDS011;5310;48.638;9.060;2023-04-25T08:50:58;0.90;;;0.90;;
10523;SDS011;5310;48.638;9.060;2023-04-25T08:53:28;0.80;;;0.80;;
10523;SDS011;5310;48.638;9.060;2023-04-25T08:55:57;0.97;;;0.97;;
10523;SDS011;5310;48.638;9.060;2023-04-25T08:58:24;0.80;;;0.80;;
10523;SDS011;5310;48.638;9.060;2023-04-25T09:00:50;0.90;;;0.90;;
10523;SDS011;5310;48.638;9.060;2023-04-25T09:03:16;0.80;;;0.80;;
10523;SDS011;5310;48.638;9.060;2023-04-25T09:05:42;0.80;;;0.80;;
10523;SDS011;5310;48.638;9.060;2023-04-25T09:08:08;0.90;;;0.90;;
10523;SDS011;5310;48.638;9.060;2023-04-25T09:10:35;0.80;;;0.80;;
10523;SDS011;5310;48.638;9.060;2023-04-25T09:13:02;0.90;;;0.90;;
10523;SDS011;5310;48.638;9.060;2023-04-25T09:15:29;0.80;;;0.80;;
10523;SDS011;5310;48.638;9.060;2023-04-25T09:17:55;0.80;;;0.80;;
10523;SDS011;5310;48.638;9.060;2023-04-25T09:20:21;0.80;;;0.80;;
10523;SDS011;5310;48.638;9.060;2023-04-25T09:22:47;0.80;;;0.80;;
10523;SDS011;5310;48.638;9.060;2023-04-25T09:25:13;0.90;;;0.90;;
10523;SDS011;5310;48.638;9.060;2023-04-25T09:27:52;0.90;;;0.90;;
10523;SDS011;5310;48.638;9.060;2023-04-25T09:30:19;0.90;;;0.90;;
10523;SDS011;5310;48.638;9.060;2023-04-25T09:32:56;0.80;;;0.80;;
10523;SDS011;5310;48.638;9.060;2023-04-25T09:35:23;0.90;;;0.90;;
10523;SDS011;5310;48.638;9.060;2023-04-25T09:37:50;0.80;;;0.80;;
10523;SDS011;5310;48.638;9.060;2023-04-25T09:40:17;0.80;;;0.80;;
10523;SDS011;5310;48.638;9.060;2023-04-25T09:42:43;0.80;;;0.80;;
10523;SDS011;5310;48.638;9.060;2023-04-25T09:45:09;0.80;;;0.80;;
10523;SDS011;5310;48.638;9.060;2023-04-25T09:47:38;0.80;;;0.80;;
10523;SDS011;5310;48.638;9.060;2023-04-25T09:50:04;0.80;;;0.80;;
10523;SDS011;5310;48.638;9.060;2023-04-25T09:52:39;0.70;;;0.70;;
10523;SDS011;5310;48.638;9.060;2023-04-25T09:55:05;0.90;;;0.90;;
10523;SDS011;5310;48.638;9.060;2023-04-25T09:57:30;0.83;;;0.83;;
10523;SDS011;5310;48.638;9.060;2023-04-25T09:59:56;0.80;;;0.80;;
10523;SDS011;5310;48.638;9.060;2023-04-25T10:02:23;0.80;;;0.80;;
10523;SDS011;5310;48.638;9.060;2023-04-25T10:04:50;0.80;;;0.80;;
10523;SDS011;5310;48.638;9.060;2023-04-25T10:07:19;0.90;;;0.90;;
10523;SDS011;5310;48.638;9.060;2023-04-25T10:09:48;0.90;;;0.90;;
10523;SDS011;5310;48.638;9.060;2023-04-25T10:12:17;0.90;;;0.90;;
10523;SDS011;5310;48.638;9.060;2023-04-25T10:14:43;0.80;;;0.80;;
10523;SDS011;5310;48.638;9.060;2023-04-25T10:17:10;0.83;;;0.83;;
10523;SDS011;5310;48.638;9.060;2023-04-25T10:19:36;0.80;;;0.80;;
10523;SDS011;5310;48.638;9.060;2023-04-25T10:24:35;0.80;;;0.80;;
10523;SDS011;5310;48.638;9.060;2023-04-25T10:27:02;0.90;;;0.90;;
10523;SDS011;5310;48.638;9.060;2023-04-25T10:29:27;0.80;;;0.80;;
10523;SDS011;5310;48.638;9.060;2023-04-25T10:31:53;0.90;;;0.90;;
10523;SDS011;5310;48.638;9.060;2023-04-25T10:34:23;0.80;;;0.80;;
10523;SDS011;5310;48.638;9.060;2023-04-25T10:36:50;0.80;;;0.80;;
10523;SDS011;5310;48.638;9.060;2023-04-25T10:39:23;0.87;;;0.87;;
10523;SDS011;5310;48.638;9.060;2023-04-25T10:41:56;0.80;;;0.80;;
10523;SDS011;5310;48.638;9.060;2023-04-25T10:44:22;0.80;;;0.80;;
10523;SDS011;5310;48.638;9.060;2023-04-25T10:46:52;0.80;;;0.80;;
10523;SDS011;5310;48.638;9.060;2023-04-25T10:49:33;0.90;;;0.90;;
10523;SDS011;5310;48.638;9.060;2023-04-25T10:54:55;0.80;;;0.80;;
10523;SDS011;5310;48.638;9.060;2023-04-25T10:57:26;0.87;;;0.87;;
10523;SDS011;5310;48.638;9.060;2023-04-25T10:59:54;0.90;;;0.90;;
10523;SDS011;5310;48.638;9.060;2023-04-25T11:02:20;1.00;;;1.00;;
10523;SDS011;5310;48.638;9.060;2023-04-25T11:04:46;0.90;;;0.90;;
10523;SDS011;5310;48.638;9.060;2023-04-25T11:10:31;0.80;;;0.80;;
10523;SDS011;5310;48.638;9.060;2023-04-25T11:12:58;0.80;;;0.80;;
10523;SDS011;5310;48.638;9.060;2023-04-25T11:15:25;0.80;;;0.80;;
10523;SDS011;5310;48.638;9.060;2023-04-25T11:17:51;0.80;;;0.80;;
10523;SDS011;5310;48.638;9.060;2023-04-25T11:20:17;0.80;;;0.80;;
10523;SDS011;5310;48.638;9.060;2023-04-25T11:22:44;0.80;;;0.80;;
10523;SDS011;5310;48.638;9.060;2023-04-25T11:25:10;0.90;;;0.90;;
10523;SDS011;5310;48.638;9.060;2023-04-25T11:27:38;0.80;;;0.80;;
10523;SDS011;5310;48.638;9.060;2023-04-25T11:30:21;0.83;;;0.83;;
10523;SDS011;5310;48.638;9.060;2023-04-25T11:32:47;0.90;;;0.90;;
10523;SDS011;5310;48.638;9.060;2023-04-25T11:35:13;0.80;;;0.80;;
10523;SDS011;5310;48.638;9.060;2023-04-25T11:37:40;0.80;;;0.80;;
10523;SDS011;5310;48.638;9.060;2023-04-25T11:40:06;0.80;;;0.80;;
10523;SDS011;5310;48.638;9.060;2023-04-25T11:42:34;0.80;;;0.80;;
10523;SDS011;5310;48.638;9.060;2023-04-25T11:45:00;0.80;;;0.80;;
10523;SDS011;5310;48.638;9.060;2023-04-25T11:47:29;0.80;;;0.80;;
10523;SDS011;5310;48.638;9.060;2023-04-25T11:49:57;0.70;;;0.70;;
10523;SDS011;5310;48.638;9.060;2023-04-25T11:52:23;0.70;;;0.70;;
10523;SDS011;5310;48.638;9.060;2023-04-25T11:54:49;0.80;;;0.80;;
10523;SDS011;5310;48.638;9.060;2023-04-25T11:57:18;0.80;;;0.80;;
10523;SDS011;5310;48.638;9.060;2023-04-25T11:59:44;0.90;;;0.90;;
10523;SDS011;5310;48.638;9.060;2023-04-25T12:02:23;0.80;;;0.80;;
10523;SDS011;5310;48.638;9.060;2023-04-25T12:04:49;0.90;;;0.90;;
10523;SDS011;5310;48.638;9.060;2023-04-25T12:07:15;0.80;;;0.80;;
10523;SDS011;5310;48.638;9.060;2023-04-25T12:09:41;0.90;;;0.90;;
10523;SDS011;5310;48.638;9.060;2023-04-25T12:12:09;0.80;;;0.80;;
10523;SDS011;5310;48.638;9.060;2023-04-25T12:14:35;0.80;;;0.80;;
10523;SDS011;5310;48.638;9.060;2023-04-25T12:17:02;0.80;;;0.80;;
10523;SDS011;5310;48.638;9.060;2023-04-25T12:19:32;0.80;;;0.80;;
10523;SDS011;5310;48.638;9.060;2023-04-25T12:21:59;0.80;;;0.80;;
10523;SDS011;5310;48.638;9.060;2023-04-25T12:24:28;0.90;;;0.90;;
10523;SDS011;5310;48.638;9.060;2023-04-25T12:27:01;0.80;;;0.80;;
10523;SDS011;5310;48.638;9.060;2023-04-25T12:29:28;0.80;;;0.80;;
10523;SDS011;5310;48.638;9.060;2023-04-25T12:31:55;0.90;;;0.90;;
10523;SDS011;5310;48.638;9.060;2023-04-25T12:34:21;0.70;;;0.70;;
10523;SDS011;5310;48.638;9.060;2023-04-25T12:36:48;0.80;;;0.80;;
10523;SDS011;5310;48.638;9.060;2023-04-25T12:39:14;0.80;;;0.80;;
10523;SDS011;5310;48.638;9.060;2023-04-25T12:41:40;0.90;;;0.90;;
10523;SDS011;5310;48.638;9.060;2023-04-25T12:44:06;0.80;;;0.80;;
10523;SDS011;5310;48.638;9.060;2023-04-25T12:46:32;0.80;;;0.80;;
10523;SDS011;5310;48.638;9.060;2023-04-25T12:48:58;0.90;;;0.90;;
10523;SDS011;5310;48.638;9.060;2023-04-25T12:51:25;0.77;;;0.77;;
10523;SDS011;5310;48.638;9.060;2023-04-25T12:53:52;0.80;;;0.80;;
10523;SDS011;5310;48.638;9.060;2023-04-25T12:56:18;0.80;;;0.80;;
10523;SDS011;5310;48.638;9.060;2023-04-25T12:58:44;0.70;;;0.70;;
10523;SDS011;5310;48.638;9.060;2023-04-25T13:01:09;0.70;;;0.70;;
10523;SDS011;5310;48.638;9.060;2023-04-25T13:03:37;0.70;;;0.70;;
10523;SDS011;5310;48.638;9.060;2023-04-25T13:06:03;0.70;;;0.70;;
10523;SDS011;5310;48.638;9.060;2023-04-25T13:08:29;0.70;;;0.70;;
10523;SDS011;5310;48.638;9.060;2023-04-25T13:10:55;0.80;;;0.80;;
10523;SDS011;5310;48.638;9.060;2023-04-25T13:13:21;0.80;;;0.80;;
10523;SDS011;5310;48.638;9.060;2023-04-25T13:15:47;0.80;;;0.80;;
10523;SDS011;5310;48.638;9.060;2023-04-25T13:18:14;0.70;;;0.70;;
10523;SDS011;5310;48.638;9.060;2023-04-25T13:20:40;0.70;;;0.70;;
10523;SDS011;5310;48.638;9.060;2023-04-25T13:23:06;0.60;;;0.60;;
10523;SDS011;5310;48.638;9.060;2023-04-25T13:25:32;0.70;;;0.70;;
10523;SDS011;5310;48.638;9.060;2023-04-25T13:27:59;0.60;;;0.60;;
10523;SDS011;5310;48.638;9.060;2023-04-25T13:30:25;0.70;;;0.70;;
10523;SDS011;5310;48.638;9.060;2023-04-25T13:32:51;0.63;;;0.63;;
10523;SDS011;5310;48.638;9.060;2023-04-25T13:35:17;0.60;;;0.60;;
10523;SDS011;5310;48.638;9.060;2023-04-25T13:37:43;0.60;;;0.60;;
10523;SDS011;5310;48.638;9.060;2023-04-25T13:40:10;0.60;;;0.60;;
10523;SDS011;5310;48.638;9.060;2023-04-25T13:42:36;0.60;;;0.60;;
10523;SDS011;5310;48.638;9.060;2023-04-25T13:45:03;0.60;;;0.60;;
10523;SDS011;5310;48.638;9.060;2023-04-25T13:47:29;0.60;;;0.60;;
10523;SDS011;5310;48.638;9.060;2023-04-25T13:49:55;0.60;;;0.60;;
10523;SDS011;5310;48.638;9.060;2023-04-25T13:52:21;0.40;;;0.40;;
10523;SDS011;5310;48.638;9.060;2023-04-25T13:54:48;0.60;;;0.60;;
10523;SDS011;5310;48.638;9.060;2023-04-25T13:57:15;0.50;;;0.50;;
10523;SDS011;5310;48.638;9.060;2023-04-25T13:59:41;0.60;;;0.60;;
10523;SDS011;5310;48.638;9.060;2023-04-25T14:02:07;0.40;;;0.40;;
10523;SDS011;5310;48.638;9.060;2023-04-25T14:04:33;0.60;;;0.60;;
10523;SDS011;5310;48.638;9.060;2023-04-25T14:06:59;0.40;;;0.40;;
10523;SDS011;5310;48.638;9.060;2023-04-25T14:09:25;0.60;;;0.60;;
10523;SDS011;5310;48.638;9.060;2023-04-25T14:11:52;0.47;;;0.47;;
10523;SDS011;5310;48.638;9.060;2023-04-25T14:14:18;0.47;;;0.47;;
10523;SDS011;5310;48.638;9.060;2023-04-25T14:16:45;0.60;;;0.60;;
10523;SDS011;5310;48.638;9.060;2023-04-25T14:19:13;0.32;;;0.32;;
10523;SDS011;5310;48.638;9.060;2023-04-25T14:21:38;0.50;;;0.50;;
10523;SDS011;5310;48.638;9.060;2023-04-25T14:24:04;0.55;;;0.55;;
10523;SDS011;5310;48.638;9.060;2023-04-25T14:26:31;0.40;;;0.40;;
10523;SDS011;5310;48.638;9.060;2023-04-25T14:28:58;0.50;;;0.50;;
10523;SDS011;5310;48.638;9.060;2023-04-25T14:31:24;0.40;;;0.40;;
10523;SDS011;5310;48.638;9.060;2023-04-25T14:33:49;0.40;;;0.40;;
10523;SDS011;5310;48.638;9.060;2023-04-25T14:36:15;0.50;;;0.50;;
10523;SDS011;5310;48.638;9.060;2023-04-25T14:38:41;0.40;;;0.40;;
10523;SDS011;5310;48.638;9.060;2023-04-25T14:41:07;0.50;;;0.50;;
10523;SDS011;5310;48.638;9.060;2023-04-25T14:43:33;0.60;;;0.60;;
10523;SDS011;5310;48.638;9.060;2023-04-25T14:46:01;0.50;;;0.50;;
10523;SDS011;5310;48.638;9.060;2023-04-25T14:48:27;0.60;;;0.60;;
10523;SDS011;5310;48.638;9.060;2023-04-25T14:50:53;0.60;;;0.60;;
10523;SDS011;5310;48.638;9.060;2023-04-25T14:53:23;0.60;;;0.60;;
10523;SDS011;5310;48.638;9.060;2023-04-25T14:55:48;0.60;;;0.60;;
10523;SDS011;5310;48.638;9.060;2023-04-25T14:58:14;0.60;;;0.60;;
10523;SDS011;5310;48.638;9.060;2023-04-25T15:00:40;0.60;;;0.60;;
10523;SDS011;5310;48.638;9.060;2023-04-25T15:03:07;0.50;;;0.50;;
10523;SDS011;5310;48.638;9.060;2023-04-25T15:05:34;0.60;;;0.60;;